createdAt,value
2023-02-06T00:01:28.985Z,37.20
2023-02-06T00:03:57.104Z,36.80
2023-02-06T00:06:25.147Z,36.30
2023-02-06T00:08:57.510Z,36.50
2023-02-06T00:11:25.752Z,36.50
2023-02-06T00:13:53.854Z,36.70
2023-02-06T00:16:23.656Z,37.00
2023-02-06T00:18:54.758Z,36.70
2023-02-06T00:21:25.042Z,36.40
2023-02-06T00:23:55.823Z,36.00
2023-02-06T00:26:24.191Z,36.10
2023-02-06T00:28:52.461Z,36.10
2023-02-06T00:31:20.479Z,36.20
2023-02-06T00:33:48.482Z,35.90
2023-02-06T00:36:16.670Z,36.50
2023-02-06T00:38:44.609Z,37.00
2023-02-06T00:41:16.309Z,36.90
2023-02-06T00:43:44.831Z,37.00
2023-02-06T00:46:12.851Z,36.30
2023-02-06T00:48:42.010Z,36.10
2023-02-06T00:51:10.018Z,36.30
2023-02-06T00:53:38.978Z,35.90
2023-02-06T00:56:07.240Z,36.00
2023-02-06T00:58:36.615Z,36.20
2023-02-06T01:01:05.105Z,36.30
2023-02-06T01:03:33.085Z,36.40
2023-02-06T01:06:01.049Z,36.20
2023-02-06T01:08:29.175Z,36.20
2023-02-06T01:10:58.771Z,35.80
2023-02-06T01:13:27.291Z,36.20
2023-02-06T01:15:56.666Z,36.00
2023-02-06T01:18:24.723Z,35.90
2023-02-06T01:20:52.688Z,35.80
2023-02-06T01:23:20.580Z,35.80
2023-02-06T01:25:48.493Z,35.80
2023-02-06T01:28:17.462Z,35.60
2023-02-06T01:30:45.413Z,35.70
2023-02-06T01:33:14.721Z,35.50
2023-02-06T01:35:42.665Z,35.30
2023-02-06T01:38:10.590Z,35.00
2023-02-06T01:40:38.948Z,35.00
2023-02-06T01:43:11.054Z,35.60
2023-02-06T01:45:45.874Z,35.70
2023-02-06T01:48:22.898Z,35.80
2023-02-06T01:50:54.965Z,35.70
2023-02-06T01:53:24.323Z,35.80
2023-02-06T01:55:54.692Z,36.20
2023-02-06T01:58:28.092Z,36.00
2023-02-06T02:00:57.707Z,35.70
2023-02-06T02:03:27.497Z,36.10
2023-02-06T02:06:00.847Z,35.90
2023-02-06T02:08:37.673Z,36.20
2023-02-06T02:11:07.693Z,35.90
2023-02-06T02:13:38.204Z,36.40
2023-02-06T02:16:16.020Z,37.00
2023-02-06T02:19:15.432Z,37.10
2023-02-06T02:22:05.307Z,36.00
2023-02-06T02:25:09.526Z,37.00
2023-02-06T02:27:50.079Z,36.60
2023-02-06T02:30:42.656Z,35.90
2023-02-06T02:33:35.140Z,35.80
2023-02-06T02:36:09.202Z,35.70
2023-02-06T02:38:44.992Z,36.10
2023-02-06T02:41:19.872Z,35.70
2023-02-06T02:43:56.313Z,35.30
2023-02-06T02:46:29.799Z,35.60
2023-02-06T02:49:03.967Z,35.10
2023-02-06T02:51:34.488Z,35.30
2023-02-06T02:54:02.467Z,35.10
2023-02-06T02:56:31.149Z,35.30
2023-02-06T02:59:02.524Z,35.60
2023-02-06T03:01:35.295Z,35.60
2023-02-06T03:04:07.640Z,35.20
2023-02-06T03:07:00.495Z,36.10
2023-02-06T03:09:39.874Z,36.90
2023-02-06T03:12:13.726Z,36.40
2023-02-06T03:14:47.127Z,36.00
2023-02-06T03:17:20.367Z,35.70
2023-02-06T03:19:53.579Z,35.50
2023-02-06T03:22:25.564Z,36.10
2023-02-06T03:24:55.485Z,36.30
2023-02-06T03:27:23.996Z,36.30
2023-02-06T03:29:54.648Z,36.00
2023-02-06T03:32:26.448Z,35.70
2023-02-06T03:35:00.568Z,35.60
2023-02-06T03:37:30.778Z,35.40
2023-02-06T03:40:01.585Z,35.20
2023-02-06T03:42:31.941Z,35.40
2023-02-06T03:45:04.584Z,35.00
2023-02-06T03:47:34.402Z,35.00
2023-02-06T03:50:03.003Z,35.50
2023-02-06T03:52:38.186Z,36.10
2023-02-06T03:55:10.526Z,36.20
2023-02-06T03:57:40.146Z,36.10
2023-02-06T04:00:09.472Z,35.50
2023-02-06T04:02:46.016Z,35.50
2023-02-06T04:05:14.278Z,36.10
2023-02-06T04:07:43.631Z,36.20
2023-02-06T04:10:11.949Z,35.60
2023-02-06T04:12:41.677Z,36.20
2023-02-06T04:15:10.015Z,36.00
2023-02-06T04:17:50.042Z,35.50
2023-02-06T04:20:25.997Z,35.80
2023-02-06T04:22:55.478Z,35.80
2023-02-06T04:25:23.393Z,35.70
2023-02-06T04:27:51.645Z,36.30
2023-02-06T04:30:19.822Z,36.10
2023-02-06T04:32:47.770Z,35.40
2023-02-06T04:35:15.761Z,37.10
2023-02-06T04:37:43.711Z,37.40
2023-02-06T04:40:13.874Z,36.70
2023-02-06T04:42:43.122Z,36.50
2023-02-06T04:45:11.326Z,36.90
2023-02-06T04:47:39.372Z,36.80
2023-02-06T04:50:10.634Z,36.30
2023-02-06T04:52:38.575Z,35.50
2023-02-06T04:55:07.032Z,35.00
2023-02-06T04:57:36.308Z,34.30
2023-02-06T05:00:05.895Z,33.80
2023-02-06T05:02:37.343Z,33.80
2023-02-06T05:05:09.053Z,33.90
2023-02-06T05:07:37.416Z,33.60
2023-02-06T05:10:05.754Z,33.70
2023-02-06T05:12:33.669Z,34.00
2023-02-06T05:15:02.990Z,33.80
2023-02-06T05:17:30.927Z,34.40
2023-02-06T05:19:58.924Z,34.40
2023-02-06T05:22:26.919Z,34.30
2023-02-06T05:24:54.833Z,34.70
2023-02-06T05:27:22.852Z,34.70
2023-02-06T05:29:50.785Z,34.70
2023-02-06T05:32:20.125Z,33.90
2023-02-06T05:34:48.049Z,33.70
2023-02-06T05:37:16.005Z,33.90
2023-02-06T05:39:43.895Z,34.40
2023-02-06T05:42:11.841Z,34.60
2023-02-06T05:44:39.832Z,34.20
2023-02-06T05:47:07.743Z,34.30
2023-02-06T05:49:37.029Z,34.10
2023-02-06T05:52:05.183Z,34.30
2023-02-06T05:54:33.191Z,33.90
2023-02-06T05:57:01.180Z,34.00
2023-02-06T05:59:29.204Z,33.90
2023-02-06T06:01:57.158Z,34.20
2023-02-06T06:04:25.124Z,34.50
2023-02-06T06:06:56.201Z,34.80
2023-02-06T06:09:26.187Z,34.80
2023-02-06T06:11:56.571Z,35.40
2023-02-06T06:14:24.654Z,34.70
2023-02-06T06:16:52.642Z,34.80
2023-02-06T06:19:20.980Z,34.80
2023-02-06T06:21:49.073Z,34.40
2023-02-06T06:24:18.362Z,33.10
2023-02-06T06:26:46.300Z,33.00
2023-02-06T06:29:14.234Z,32.90
2023-02-06T06:31:42.232Z,32.80
2023-02-06T06:34:10.168Z,32.90
2023-02-06T06:36:38.194Z,33.50
2023-02-06T06:39:06.203Z,34.10
2023-02-06T06:41:35.477Z,33.50
2023-02-06T06:44:03.517Z,33.60
2023-02-06T06:46:31.541Z,34.20
2023-02-06T06:48:59.479Z,33.10
2023-02-06T06:51:29.315Z,33.70
2023-02-06T06:53:59.613Z,33.60
2023-02-06T06:56:27.853Z,34.00
2023-02-06T06:58:57.089Z,33.70
2023-02-06T07:01:25.071Z,33.90
2023-02-06T07:03:53.077Z,34.10
2023-02-06T07:06:21.021Z,33.40
2023-02-06T07:08:48.943Z,33.30
2023-02-06T07:11:18.493Z,33.70
2023-02-06T07:13:46.818Z,32.80
2023-02-06T07:16:18.877Z,33.30
2023-02-06T07:18:47.360Z,32.70
2023-02-06T07:21:15.890Z,32.60
2023-02-06T07:23:43.936Z,32.70
2023-02-06T07:26:13.817Z,32.80
2023-02-06T07:28:42.350Z,32.90
2023-02-06T07:31:10.711Z,32.20
2023-02-06T07:33:40.071Z,32.00
2023-02-06T07:36:11.723Z,32.20
2023-02-06T07:38:39.997Z,32.10
2023-02-06T07:41:08.531Z,31.70
2023-02-06T07:43:36.510Z,32.00
2023-02-06T07:46:06.153Z,32.00
2023-02-06T07:48:34.159Z,31.30
2023-02-06T07:51:07.713Z,31.80
2023-02-06T07:53:36.362Z,31.80
2023-02-06T07:56:10.805Z,32.20
2023-02-06T07:58:38.729Z,32.40
2023-02-06T08:01:07.442Z,31.60
2023-02-06T08:03:35.671Z,31.40
2023-02-06T08:06:10.410Z,31.80
2023-02-06T08:08:38.386Z,31.30
2023-02-06T08:11:07.336Z,30.70
2023-02-06T08:13:35.926Z,30.60
2023-02-06T08:16:09.021Z,30.90
2023-02-06T08:18:37.506Z,30.40
2023-02-06T08:21:11.357Z,31.40
2023-02-06T08:23:41.048Z,30.70
2023-02-06T08:26:10.997Z,30.60
2023-02-06T08:28:41.953Z,31.00
2023-02-06T08:31:11.702Z,30.90
2023-02-06T08:33:40.206Z,31.40
2023-02-06T08:36:09.424Z,30.80
2023-02-06T08:38:37.677Z,30.90
2023-02-06T08:41:17.395Z,31.20
2023-02-06T08:43:45.686Z,31.10
2023-02-06T08:46:13.751Z,30.50
2023-02-06T08:48:42.144Z,30.70
2023-02-06T08:51:11.441Z,30.20
2023-02-06T08:53:40.046Z,30.90
2023-02-06T08:56:12.080Z,30.70
2023-02-06T08:58:41.966Z,30.50
2023-02-06T09:01:13.871Z,30.80
2023-02-06T09:03:42.708Z,29.80
2023-02-06T09:06:11.515Z,30.50
2023-02-06T09:08:40.101Z,29.90
2023-02-06T09:11:10.076Z,30.00
2023-02-06T09:13:38.533Z,30.40
2023-02-06T09:16:07.888Z,30.00
2023-02-06T09:18:36.562Z,29.90
2023-02-06T09:21:07.882Z,30.50
2023-02-06T09:23:35.896Z,31.10
2023-02-06T09:26:04.009Z,30.70
2023-02-06T09:28:36.170Z,31.60
2023-02-06T09:31:04.258Z,31.30
2023-02-06T09:33:32.219Z,30.20
2023-02-06T09:36:05.571Z,30.10
2023-02-06T09:38:33.861Z,30.50
2023-02-06T09:41:04.814Z,29.80
2023-02-06T09:43:35.652Z,29.60
2023-02-06T09:46:05.901Z,30.00
2023-02-06T09:48:39.241Z,29.40
2023-02-06T09:51:16.374Z,29.30
2023-02-06T09:53:50.751Z,29.00
2023-02-06T09:56:27.882Z,29.10
2023-02-06T09:59:07.212Z,29.20
2023-02-06T10:01:40.476Z,29.40
2023-02-06T10:04:30.845Z,29.40
2023-02-06T10:07:07.261Z,29.30
2023-02-06T10:09:40.435Z,28.80
2023-02-06T10:12:13.835Z,28.90
2023-02-06T10:14:48.151Z,29.60
2023-02-06T10:17:21.475Z,29.20
2023-02-06T10:19:58.032Z,29.20
2023-02-06T10:22:32.091Z,29.40
2023-02-06T10:25:17.266Z,29.20
2023-02-06T10:27:46.538Z,28.60
2023-02-06T10:30:19.477Z,28.60
2023-02-06T10:32:54.610Z,28.00
2023-02-06T10:35:35.230Z,28.60
2023-02-06T10:38:21.019Z,28.70
2023-02-06T10:40:54.543Z,28.40
2023-02-06T10:43:33.556Z,28.90
2023-02-06T10:46:20.336Z,28.10
2023-02-06T10:48:55.990Z,28.30
2023-02-06T10:51:28.942Z,27.60
2023-02-06T10:54:00.245Z,28.00
2023-02-06T10:56:31.483Z,27.70
2023-02-06T10:59:03.133Z,28.00
2023-02-06T11:01:36.429Z,27.70
2023-02-06T11:04:07.245Z,27.80
2023-02-06T11:06:35.825Z,27.80
2023-02-06T11:09:04.379Z,28.00
2023-02-06T11:11:37.415Z,28.00
2023-02-06T11:14:16.778Z,28.60
2023-02-06T11:16:47.639Z,28.80
2023-02-06T11:19:19.933Z,28.50
2023-02-06T11:21:56.536Z,29.10
2023-02-06T11:24:25.855Z,28.60
2023-02-06T11:26:57.241Z,28.60
2023-02-06T11:29:28.254Z,28.70
2023-02-06T11:31:59.909Z,28.70
2023-02-06T11:34:30.570Z,28.90
2023-02-06T11:37:00.367Z,29.30
2023-02-06T11:39:31.291Z,29.30
2023-02-06T11:42:02.183Z,29.90
2023-02-06T11:44:39.656Z,30.30
2023-02-06T11:47:32.206Z,30.90
2023-02-06T11:50:24.683Z,31.10
2023-02-06T11:53:00.256Z,31.50
2023-02-06T11:55:29.734Z,31.90
2023-02-06T11:58:07.319Z,31.80
2023-02-06T12:00:37.976Z,31.70
2023-02-06T12:03:31.816Z,31.60
2023-02-06T12:06:04.623Z,31.30
2023-02-06T12:08:44.171Z,30.80
2023-02-06T12:11:22.368Z,30.90
2023-02-06T12:13:54.552Z,30.90
2023-02-06T12:16:24.248Z,31.10
2023-02-06T12:18:57.635Z,31.40
2023-02-06T12:21:31.488Z,32.00
2023-02-06T12:24:02.420Z,32.00
2023-02-06T12:26:32.599Z,32.60
2023-02-06T12:29:03.819Z,32.40
2023-02-06T12:31:39.521Z,31.80
2023-02-06T12:34:15.417Z,32.30
2023-02-06T12:36:55.881Z,32.00
2023-02-06T12:39:24.561Z,32.90
2023-02-06T12:42:07.503Z,32.30
2023-02-06T12:44:40.259Z,32.40
2023-02-06T12:47:15.352Z,32.40
2023-02-06T12:49:52.843Z,32.50
2023-02-06T12:52:26.435Z,32.80
2023-02-06T12:55:01.990Z,33.00
2023-02-06T12:57:31.622Z,33.50
2023-02-06T13:00:17.477Z,33.30
2023-02-06T13:03:02.460Z,33.40
2023-02-06T13:05:37.796Z,32.90
2023-02-06T13:08:10.054Z,33.40
2023-02-06T13:10:38.809Z,33.60
2023-02-06T13:13:07.346Z,33.40
2023-02-06T13:15:40.475Z,33.40
2023-02-06T13:18:36.062Z,33.60
2023-02-06T13:21:19.545Z,33.80
2023-02-06T13:24:07.543Z,33.80
2023-02-06T13:27:13.913Z,33.90
2023-02-06T13:29:43.951Z,34.50
2023-02-06T13:32:31.544Z,34.20
2023-02-06T13:35:08.174Z,34.20
2023-02-06T13:37:39.450Z,34.20
2023-02-06T13:40:27.412Z,34.40
2023-02-06T13:42:57.792Z,34.50
2023-02-06T13:45:28.649Z,35.10
2023-02-06T13:48:36.868Z,34.40
2023-02-06T13:51:21.524Z,33.90
2023-02-06T13:54:30.552Z,34.40
2023-02-06T13:57:32.841Z,34.50
2023-02-06T14:00:02.984Z,35.00
2023-02-06T14:02:38.237Z,35.10
2023-02-06T14:05:11.803Z,34.60
2023-02-06T14:07:55.147Z,33.80
2023-02-06T14:10:56.024Z,33.10
2023-02-06T14:13:42.522Z,32.30
2023-02-06T14:16:24.619Z,32.30
2023-02-06T14:18:59.354Z,32.20
2023-02-06T14:21:38.626Z,31.50
2023-02-06T14:24:27.759Z,31.10
2023-02-06T14:27:10.415Z,31.10
2023-02-06T14:29:47.028Z,31.00
2023-02-06T14:32:32.570Z,31.20
2023-02-06T14:35:40.097Z,31.40
2023-02-06T14:38:29.075Z,31.80
2023-02-06T14:40:59.341Z,31.70
2023-02-06T14:43:30.847Z,31.70
2023-02-06T14:46:08.151Z,31.40
2023-02-06T14:48:42.267Z,31.60
2023-02-06T14:51:21.738Z,31.10
2023-02-06T14:53:54.090Z,31.30
2023-02-06T14:56:28.598Z,31.00
2023-02-06T14:59:08.141Z,31.00
2023-02-06T15:01:36.083Z,31.00
2023-02-06T15:04:12.968Z,30.50
2023-02-06T15:06:43.000Z,30.70
2023-02-06T15:09:25.014Z,30.70
2023-02-06T15:11:54.521Z,30.80
2023-02-06T15:14:26.092Z,31.00
2023-02-06T15:16:56.777Z,30.90
2023-02-06T15:19:28.794Z,31.20
2023-02-06T15:22:00.995Z,30.90
2023-02-06T15:24:47.158Z,30.60
2023-02-06T15:27:21.934Z,30.60
2023-02-06T15:29:52.085Z,31.10
2023-02-06T15:32:27.174Z,31.20
2023-02-06T15:34:55.958Z,31.30
2023-02-06T15:37:26.631Z,31.30
2023-02-06T15:39:55.240Z,31.20
2023-02-06T15:42:23.772Z,32.00
2023-02-06T15:44:53.331Z,32.30
2023-02-06T15:47:22.778Z,32.90
2023-02-06T15:49:53.096Z,33.10
2023-02-06T15:52:36.520Z,33.00
2023-02-06T15:55:05.346Z,34.00
2023-02-06T15:57:36.451Z,34.50
2023-02-06T16:00:09.689Z,35.00
2023-02-06T16:02:41.808Z,34.90
2023-02-06T16:05:20.420Z,34.80
2023-02-06T16:07:49.807Z,35.40
2023-02-06T16:10:22.909Z,34.90
2023-02-06T16:12:51.934Z,35.00
2023-02-06T16:15:30.134Z,35.30
2023-02-06T16:18:03.671Z,34.80
2023-02-06T16:20:39.445Z,35.00
2023-02-06T16:23:26.098Z,35.00
2023-02-06T16:26:04.068Z,35.90
2023-02-06T16:28:32.008Z,36.20
2023-02-06T16:31:04.391Z,36.40
2023-02-06T16:33:38.265Z,36.40
2023-02-06T16:36:06.888Z,36.20
2023-02-06T16:38:37.979Z,36.30
2023-02-06T16:41:25.697Z,36.40
2023-02-06T16:43:54.305Z,36.00
2023-02-06T16:46:24.022Z,35.90
2023-02-06T16:48:52.070Z,35.90
2023-02-06T16:51:22.706Z,35.80
2023-02-06T16:53:51.259Z,35.90
2023-02-06T16:56:20.425Z,35.50
2023-02-06T16:58:48.856Z,35.00
2023-02-06T17:01:21.968Z,35.00
2023-02-06T17:03:52.262Z,34.90
2023-02-06T17:06:23.505Z,35.20
2023-02-06T17:08:52.051Z,35.70
2023-02-06T17:11:20.065Z,34.90
2023-02-06T17:13:48.338Z,35.70
2023-02-06T17:16:21.095Z,35.90
2023-02-06T17:18:51.226Z,35.80
2023-02-06T17:21:22.186Z,35.90
2023-02-06T17:23:52.673Z,35.70
2023-02-06T17:26:23.593Z,35.60
2023-02-06T17:28:52.324Z,36.00
2023-02-06T17:31:23.480Z,35.90
2023-02-06T17:33:55.018Z,36.50
2023-02-06T17:36:29.357Z,37.20
2023-02-06T17:38:58.808Z,36.10
2023-02-06T17:41:26.842Z,36.20
2023-02-06T17:43:55.801Z,37.30
2023-02-06T17:46:24.015Z,37.60
2023-02-06T17:48:53.284Z,37.80
2023-02-06T17:51:21.215Z,38.20
2023-02-06T17:53:50.224Z,37.60
2023-02-06T17:56:19.186Z,37.80
2023-02-06T17:58:47.333Z,37.70
2023-02-06T18:01:17.799Z,37.70
2023-02-06T18:03:47.965Z,38.70
2023-02-06T18:06:17.927Z,38.70
2023-02-06T18:08:46.736Z,39.00
2023-02-06T18:11:17.974Z,38.70
2023-02-06T18:13:48.236Z,38.70
2023-02-06T18:16:18.017Z,39.30
2023-02-06T18:18:46.584Z,39.50
2023-02-06T18:21:19.062Z,40.50
2023-02-06T18:23:49.208Z,39.80
2023-02-06T18:26:17.489Z,39.80
2023-02-06T18:28:45.481Z,40.80
2023-02-06T18:31:23.223Z,41.20
2023-02-06T18:33:51.379Z,41.30
2023-02-06T18:36:19.833Z,40.90
2023-02-06T18:38:51.720Z,40.70
2023-02-06T18:41:39.209Z,40.60
2023-02-06T18:44:09.442Z,41.20
2023-02-06T18:46:37.893Z,41.10
2023-02-06T18:49:06.375Z,40.80
2023-02-06T18:51:34.453Z,41.10
2023-02-06T18:54:04.067Z,40.40
2023-02-06T18:56:32.351Z,40.90
2023-02-06T18:59:00.331Z,42.00
2023-02-06T19:01:28.291Z,42.50
2023-02-06T19:03:57.407Z,42.90
2023-02-06T19:06:28.882Z,43.50
2023-02-06T19:08:57.015Z,43.30
2023-02-06T19:11:27.286Z,43.50
2023-02-06T19:13:56.026Z,43.10
2023-02-06T19:16:26.308Z,42.80
2023-02-06T19:18:54.587Z,42.50
2023-02-06T19:21:23.883Z,41.50
2023-02-06T19:23:56.007Z,40.50
2023-02-06T19:26:25.996Z,40.00
2023-02-06T19:28:54.304Z,39.80
2023-02-06T19:31:24.485Z,39.70
2023-02-06T19:33:54.007Z,39.60
2023-02-06T19:36:24.102Z,39.70
2023-02-06T19:38:56.483Z,40.50
2023-02-06T19:41:27.974Z,41.20
2023-02-06T19:43:58.824Z,41.80
2023-02-06T19:46:28.458Z,41.50
2023-02-06T19:48:56.468Z,41.80
2023-02-06T19:51:26.467Z,42.50
2023-02-06T19:53:55.554Z,42.40
2023-02-06T19:56:25.186Z,43.30
2023-02-06T19:58:57.367Z,42.50
2023-02-06T20:01:26.759Z,42.40
2023-02-06T20:03:54.688Z,42.90
2023-02-06T20:06:23.005Z,42.80
2023-02-06T20:08:51.142Z,42.40
2023-02-06T20:11:22.004Z,41.80
2023-02-06T20:13:51.998Z,41.80
2023-02-06T20:16:23.882Z,42.00
2023-02-06T20:18:52.538Z,41.40
2023-02-06T20:21:23.030Z,41.60
2023-02-06T20:23:51.162Z,41.00
2023-02-06T20:26:20.541Z,40.50
2023-02-06T20:28:48.836Z,40.70
2023-02-06T20:31:17.166Z,39.90
2023-02-06T20:33:47.157Z,39.30
2023-02-06T20:36:16.840Z,38.90
2023-02-06T20:38:48.583Z,38.60
2023-02-06T20:41:17.215Z,38.30
2023-02-06T20:43:47.846Z,37.90
2023-02-06T20:46:17.369Z,37.30
2023-02-06T20:48:47.841Z,36.80
2023-02-06T20:51:15.790Z,36.70
2023-02-06T20:53:43.757Z,38.10
2023-02-06T20:56:14.692Z,38.40
2023-02-06T20:58:43.486Z,37.00
2023-02-06T21:01:16.280Z,36.40
2023-02-06T21:03:46.286Z,36.40
2023-02-06T21:06:17.773Z,37.90
2023-02-06T21:08:47.368Z,39.40
2023-02-06T21:11:15.589Z,40.30
2023-02-06T21:13:43.632Z,40.90
2023-02-06T21:16:13.702Z,42.20
2023-02-06T21:18:42.673Z,42.80
2023-02-06T21:21:15.365Z,42.70
2023-02-06T21:23:43.992Z,42.40
2023-02-06T21:26:15.421Z,42.80
2023-02-06T21:28:43.412Z,43.90
2023-02-06T21:31:15.733Z,44.90
2023-02-06T21:33:47.565Z,45.60
2023-02-06T21:36:16.845Z,46.20
2023-02-06T21:38:45.168Z,46.50
2023-02-06T21:41:17.385Z,46.50
2023-02-06T21:43:46.052Z,46.50
2023-02-06T21:46:16.945Z,45.90
2023-02-06T21:48:45.537Z,45.90
2023-02-06T21:51:19.028Z,45.40
2023-02-06T21:53:47.469Z,43.50
2023-02-06T21:56:17.406Z,42.20
2023-02-06T21:58:45.634Z,41.00
2023-02-06T22:01:17.580Z,40.80
2023-02-06T22:03:45.991Z,40.70
2023-02-06T22:06:14.372Z,39.90
2023-02-06T22:08:45.150Z,39.60
2023-02-06T22:11:14.998Z,38.50
2023-02-06T22:13:43.850Z,38.20
2023-02-06T22:16:17.256Z,37.90
2023-02-06T22:18:45.191Z,38.00
2023-02-06T22:21:17.933Z,38.00
2023-02-06T22:23:48.433Z,37.90
2023-02-06T22:26:18.452Z,38.70
2023-02-06T22:28:47.213Z,39.20
2023-02-06T22:31:17.962Z,38.70
2023-02-06T22:33:46.409Z,39.20
2023-02-06T22:36:17.376Z,39.20
2023-02-06T22:38:48.086Z,40.00
2023-02-06T22:41:18.177Z,40.80
2023-02-06T22:43:47.173Z,40.00
2023-02-06T22:46:19.792Z,39.90
2023-02-06T22:48:49.659Z,39.70
2023-02-06T22:51:18.222Z,39.40
2023-02-06T22:53:47.726Z,38.30
2023-02-06T22:56:27.849Z,37.00
2023-02-06T22:58:56.735Z,35.70
2023-02-06T23:01:26.815Z,35.90
2023-02-06T23:03:57.580Z,36.70
2023-02-06T23:06:26.944Z,37.40
2023-02-06T23:08:58.400Z,38.50
2023-02-06T23:11:26.907Z,38.10
2023-02-06T23:13:56.467Z,37.90
2023-02-06T23:16:25.526Z,38.30
2023-02-06T23:18:55.588Z,39.10
2023-02-06T23:21:25.637Z,38.80
2023-02-06T23:23:58.300Z,37.90
2023-02-06T23:26:26.542Z,37.20
2023-02-06T23:28:56.628Z,36.20
2023-02-06T23:31:24.846Z,36.20
2023-02-06T23:33:53.247Z,37.00
2023-02-06T23:36:23.880Z,37.00
2023-02-06T23:38:52.518Z,36.00
2023-02-06T23:41:24.024Z,35.40
2023-02-06T23:43:52.730Z,34.60
2023-02-06T23:46:21.293Z,35.00
2023-02-06T23:48:49.754Z,35.30
2023-02-06T23:51:18.652Z,35.50
2023-02-06T23:53:46.569Z,36.70
2023-02-06T23:56:20.148Z,36.80
2023-02-06T23:58:49.815Z,36.50
